createdAt,value
2017-08-03T00:02:06.735Z,18.10
2017-08-03T00:04:34.276Z,18.00
2017-08-03T00:07:02.637Z,17.90
2017-08-03T00:09:30.187Z,17.90
2017-08-03T00:11:57.741Z,17.90
2017-08-03T00:14:25.314Z,17.90
2017-08-03T00:16:52.853Z,17.90
2017-08-03T00:19:20.399Z,17.80
2017-08-03T00:21:47.985Z,17.80
2017-08-03T00:24:15.525Z,17.80
2017-08-03T00:26:43.896Z,17.80
2017-08-03T00:29:12.225Z,17.80
2017-08-03T00:31:39.777Z,17.80
2017-08-03T00:34:07.320Z,17.80
2017-08-03T00:36:34.881Z,17.80
2017-08-03T00:39:02.403Z,17.80
2017-08-03T00:41:29.934Z,17.70
2017-08-03T00:43:57.523Z,17.70
2017-08-03T00:46:25.105Z,17.80
2017-08-03T00:48:52.644Z,17.70
2017-08-03T00:51:20.222Z,17.70
2017-08-03T00:53:47.769Z,17.60
2017-08-03T00:56:15.320Z,17.70
2017-08-03T00:58:42.886Z,17.60
2017-08-03T01:01:10.719Z,17.60
2017-08-03T01:03:39.014Z,17.60
2017-08-03T01:06:07.326Z,17.60
2017-08-03T01:08:34.875Z,17.50
2017-08-03T01:11:02.408Z,17.50
2017-08-03T01:13:29.993Z,17.60
2017-08-03T01:15:57.516Z,17.50
2017-08-03T01:18:25.053Z,17.50
2017-08-03T01:20:52.624Z,17.60
2017-08-03T01:23:20.142Z,17.60
2017-08-03T01:25:48.440Z,17.70
2017-08-03T01:28:17.006Z,17.60
2017-08-03T01:30:44.570Z,17.70
2017-08-03T01:33:12.875Z,17.60
2017-08-03T01:35:40.447Z,17.60
2017-08-03T01:38:07.990Z,17.60
2017-08-03T01:40:36.332Z,17.60
2017-08-03T01:43:03.894Z,17.70
2017-08-03T01:45:31.408Z,17.60
2017-08-03T01:47:58.943Z,17.60
2017-08-03T01:50:26.503Z,17.60
2017-08-03T01:52:54.038Z,17.60
2017-08-03T01:55:21.622Z,17.60
2017-08-03T01:57:49.195Z,17.60
2017-08-03T02:00:16.771Z,17.60
2017-08-03T02:02:44.312Z,17.60
2017-08-03T02:05:11.869Z,17.60
2017-08-03T02:07:39.463Z,17.60
2017-08-03T02:10:07.006Z,17.60
2017-08-03T02:12:34.586Z,17.60
2017-08-03T02:15:02.141Z,17.50
2017-08-03T02:17:29.703Z,17.50
2017-08-03T02:19:57.262Z,17.40
2017-08-03T02:22:24.816Z,17.40
2017-08-03T02:24:52.365Z,17.30
2017-08-03T02:27:19.976Z,17.30
2017-08-03T02:29:48.323Z,17.20
2017-08-03T02:32:15.881Z,17.10
2017-08-03T02:34:43.431Z,17.10
2017-08-03T02:37:10.965Z,17.20
2017-08-03T02:39:38.509Z,17.20
2017-08-03T02:42:06.057Z,17.10
2017-08-03T02:44:33.594Z,17.10
2017-08-03T02:47:01.110Z,17.10
2017-08-03T02:49:28.662Z,17.10
2017-08-03T02:51:56.225Z,17.10
2017-08-03T02:54:24.330Z,17.20
2017-08-03T02:56:52.628Z,17.20
2017-08-03T02:59:20.164Z,17.10
2017-08-03T03:01:47.731Z,17.20
2017-08-03T03:04:15.304Z,17.30
2017-08-03T03:06:43.594Z,17.30
2017-08-03T03:09:11.882Z,17.30
2017-08-03T03:11:39.446Z,17.30
2017-08-03T03:14:06.991Z,17.40
2017-08-03T03:16:35.323Z,17.40
2017-08-03T03:19:02.895Z,17.30
2017-08-03T03:21:30.435Z,17.40
2017-08-03T03:23:57.960Z,17.40
2017-08-03T03:26:26.270Z,17.50
2017-08-03T03:28:53.800Z,17.50
2017-08-03T03:31:21.351Z,17.60
2017-08-03T03:33:48.900Z,17.70
2017-08-03T03:36:16.432Z,17.70
2017-08-03T03:38:43.987Z,17.90
2017-08-03T03:41:11.516Z,18.10
2017-08-03T03:43:39.030Z,18.30
2017-08-03T03:46:06.578Z,18.60
2017-08-03T03:48:34.116Z,18.70
2017-08-03T03:51:01.683Z,18.70
2017-08-03T03:53:29.990Z,18.80
2017-08-03T03:55:57.532Z,18.80
2017-08-03T03:58:25.855Z,19.00
2017-08-03T04:00:53.391Z,19.00
2017-08-03T04:03:20.926Z,19.10
2017-08-03T04:05:48.509Z,19.10
2017-08-03T04:08:16.818Z,19.20
2017-08-03T04:10:44.354Z,19.20
2017-08-03T04:13:12.675Z,19.40
2017-08-03T04:15:40.192Z,19.40
2017-08-03T04:18:08.534Z,19.60
2017-08-03T04:20:36.098Z,19.50
2017-08-03T04:23:03.631Z,19.60
2017-08-03T04:25:31.200Z,19.60
2017-08-03T04:27:58.746Z,19.60
2017-08-03T04:30:27.028Z,19.70
2017-08-03T04:32:55.315Z,19.70
2017-08-03T04:35:22.883Z,19.70
2017-08-03T04:37:50.427Z,19.80
2017-08-03T04:40:18.718Z,19.90
2017-08-03T04:42:47.054Z,19.90
2017-08-03T04:45:14.609Z,19.90
2017-08-03T04:47:42.137Z,19.90
2017-08-03T04:50:09.666Z,20.00
2017-08-03T04:52:37.237Z,19.90
2017-08-03T04:55:04.770Z,19.90
2017-08-03T04:57:32.326Z,19.90
2017-08-03T04:59:59.890Z,19.90
2017-08-03T05:02:27.447Z,19.90
2017-08-03T05:04:54.982Z,19.90
2017-08-03T05:07:22.542Z,19.90
2017-08-03T05:09:50.847Z,20.20
2017-08-03T05:12:18.403Z,20.10
2017-08-03T05:14:46.949Z,20.20
2017-08-03T05:17:14.470Z,20.30
2017-08-03T05:19:42.006Z,20.40
2017-08-03T05:22:10.339Z,20.70
2017-08-03T05:24:37.870Z,20.70
2017-08-03T05:27:05.423Z,20.80
2017-08-03T05:29:32.982Z,21.00
2017-08-03T05:32:01.419Z,21.30
2017-08-03T05:34:29.900Z,21.50
2017-08-03T05:36:57.478Z,21.80
2017-08-03T05:39:25.019Z,21.90
2017-08-03T05:41:52.556Z,22.10
2017-08-03T05:44:20.108Z,22.30
2017-08-03T05:46:48.407Z,22.60
2017-08-03T05:49:16.025Z,22.60
2017-08-03T05:51:44.957Z,22.80
2017-08-03T05:54:12.499Z,22.90
2017-08-03T05:56:40.795Z,23.10
2017-08-03T05:59:09.108Z,23.30
2017-08-03T06:01:36.648Z,23.20
2017-08-03T06:04:04.953Z,23.60
2017-08-03T06:06:32.497Z,23.60
2017-08-03T06:09:00.043Z,23.80
2017-08-03T06:11:27.590Z,23.90
2017-08-03T06:13:55.145Z,24.00
2017-08-03T06:16:22.717Z,24.20
2017-08-03T06:18:50.255Z,24.50
2017-08-03T06:21:17.819Z,24.70
2017-08-03T06:23:45.344Z,24.80
2017-08-03T06:26:12.883Z,25.00
2017-08-03T06:28:41.227Z,25.50
2017-08-03T06:31:08.749Z,25.40
2017-08-03T06:33:36.278Z,25.50
2017-08-03T06:36:03.837Z,25.40
2017-08-03T06:38:31.364Z,25.40
2017-08-03T06:40:58.888Z,25.40
2017-08-03T06:43:27.220Z,25.50
2017-08-03T06:45:54.740Z,25.40
2017-08-03T06:48:22.267Z,25.60
2017-08-03T06:50:49.806Z,25.60
2017-08-03T06:53:17.338Z,25.50
2017-08-03T06:55:44.874Z,25.40
2017-08-03T06:58:12.425Z,25.30
2017-08-03T07:00:39.969Z,25.40
2017-08-03T07:03:07.504Z,25.40
2017-08-03T07:05:35.038Z,25.40
2017-08-03T07:08:02.583Z,25.50
2017-08-03T07:10:30.124Z,25.70
2017-08-03T07:12:57.696Z,25.80
2017-08-03T07:15:25.213Z,26.00
2017-08-03T07:17:53.506Z,26.70
2017-08-03T07:20:21.058Z,26.70
2017-08-03T07:22:49.341Z,27.80
2017-08-03T07:25:16.860Z,27.80
2017-08-03T07:27:45.428Z,29.10
2017-08-03T07:30:12.992Z,30.30
2017-08-03T07:32:40.528Z,30.90
2017-08-03T07:35:08.097Z,31.40
2017-08-03T07:37:35.636Z,32.00
2017-08-03T07:40:03.970Z,32.40
2017-08-03T07:42:31.536Z,32.30
2017-08-03T07:45:02.318Z,32.30
2017-08-03T07:47:30.621Z,32.70
2017-08-03T07:49:58.164Z,32.60
2017-08-03T07:52:25.699Z,32.90
2017-08-03T07:54:53.245Z,33.00
2017-08-03T07:57:20.812Z,33.00
2017-08-03T07:59:48.337Z,32.80
2017-08-03T08:02:15.895Z,32.90
2017-08-03T08:04:44.226Z,33.10
2017-08-03T08:07:12.211Z,33.10
2017-08-03T08:09:39.752Z,33.10
2017-08-03T08:12:07.301Z,31.70
2017-08-03T08:14:34.902Z,31.50
2017-08-03T08:17:02.410Z,31.40
2017-08-03T08:19:29.928Z,31.60
2017-08-03T08:21:57.478Z,32.10
2017-08-03T08:24:25.015Z,32.90
2017-08-03T08:26:52.555Z,33.40
2017-08-03T08:29:20.887Z,34.20
2017-08-03T08:31:48.425Z,34.20
2017-08-03T08:34:15.963Z,34.10
2017-08-03T08:36:44.726Z,33.00
2017-08-03T08:39:12.274Z,33.00
2017-08-03T08:41:39.802Z,32.60
2017-08-03T08:44:09.132Z,31.90
2017-08-03T08:46:36.682Z,31.90
2017-08-03T08:49:04.242Z,31.90
2017-08-03T08:51:32.785Z,31.60
2017-08-03T08:54:00.340Z,31.00
2017-08-03T08:56:27.881Z,30.70
2017-08-03T08:58:55.445Z,30.30
2017-08-03T09:01:22.971Z,30.20
2017-08-03T09:03:50.505Z,29.90
2017-08-03T09:06:18.062Z,29.50
2017-08-03T09:08:45.602Z,29.60
2017-08-03T09:11:13.139Z,29.50
2017-08-03T09:13:40.739Z,29.40
2017-08-03T09:16:08.286Z,29.30
2017-08-03T09:18:35.825Z,29.40
2017-08-03T09:21:04.169Z,29.40
2017-08-03T09:23:31.700Z,29.40
2017-08-03T09:25:59.239Z,29.30
2017-08-03T09:28:27.567Z,29.20
2017-08-03T09:30:55.091Z,29.20
2017-08-03T09:33:22.635Z,29.30
2017-08-03T09:35:50.967Z,29.60
2017-08-03T09:38:18.501Z,29.50
2017-08-03T09:40:46.021Z,29.70
2017-08-03T09:43:13.582Z,29.70
2017-08-03T09:45:41.137Z,29.70
2017-08-03T09:48:08.673Z,29.70
2017-08-03T09:50:36.237Z,29.70
2017-08-03T09:53:03.785Z,29.70
2017-08-03T09:55:31.339Z,29.80
2017-08-03T09:57:59.680Z,30.00
2017-08-03T10:00:27.218Z,29.90
2017-08-03T10:02:54.750Z,30.00
2017-08-03T10:05:23.079Z,30.50
2017-08-03T10:07:50.625Z,30.50
2017-08-03T10:10:18.181Z,30.80
2017-08-03T10:12:46.754Z,31.10
2017-08-03T10:15:14.322Z,31.80
2017-08-03T10:17:41.877Z,32.60
2017-08-03T10:20:10.193Z,34.10
2017-08-03T10:22:37.765Z,34.10
2017-08-03T10:25:08.098Z,34.60
2017-08-03T10:27:35.675Z,34.60
2017-08-03T10:30:03.249Z,34.40
2017-08-03T10:32:30.813Z,34.30
2017-08-03T10:34:58.399Z,34.40
2017-08-03T10:37:26.710Z,35.80
2017-08-03T10:39:54.260Z,35.80
2017-08-03T10:42:22.579Z,36.50
2017-08-03T10:44:50.160Z,36.50
2017-08-03T10:47:17.698Z,37.00
2017-08-03T10:49:45.300Z,37.30
2017-08-03T10:52:12.846Z,38.20
2017-08-03T10:54:40.381Z,37.90
2017-08-03T10:57:07.945Z,38.40
2017-08-03T10:59:35.494Z,38.00
2017-08-03T11:02:03.002Z,36.90
2017-08-03T11:04:30.581Z,36.70
2017-08-03T11:06:58.201Z,37.00
2017-08-03T11:09:25.752Z,37.00
2017-08-03T11:11:54.059Z,37.60
2017-08-03T11:14:21.608Z,37.50
2017-08-03T11:16:49.144Z,37.10
2017-08-03T11:19:16.716Z,36.40
2017-08-03T11:21:45.023Z,34.90
2017-08-03T11:24:12.566Z,34.80
2017-08-03T11:26:40.896Z,34.80
2017-08-03T11:29:08.448Z,34.70
2017-08-03T11:31:36.003Z,36.00
2017-08-03T11:34:03.557Z,37.20
2017-08-03T11:36:31.099Z,38.50
2017-08-03T11:38:59.407Z,38.30
2017-08-03T11:41:26.979Z,38.30
2017-08-03T11:43:54.531Z,38.90
2017-08-03T11:46:22.073Z,38.70
2017-08-03T11:48:50.402Z,38.50
2017-08-03T11:51:17.931Z,38.40
2017-08-03T11:53:45.475Z,38.10
2017-08-03T11:56:13.065Z,38.30
2017-08-03T11:58:40.606Z,38.60
2017-08-03T12:01:08.148Z,39.00
2017-08-03T12:03:35.735Z,39.30
2017-08-03T12:06:04.052Z,38.40
2017-08-03T12:08:31.604Z,38.30
2017-08-03T12:10:59.178Z,38.50
2017-08-03T12:13:26.728Z,37.70
2017-08-03T12:15:55.055Z,37.30
2017-08-03T12:18:22.624Z,37.30
2017-08-03T12:20:50.189Z,36.60
2017-08-03T12:23:17.741Z,35.70
2017-08-03T12:25:45.383Z,35.20
2017-08-03T12:28:12.987Z,34.90
2017-08-03T12:30:40.547Z,35.10
2017-08-03T12:33:08.142Z,35.20
2017-08-03T12:35:35.892Z,35.70
2017-08-03T12:38:03.433Z,36.50
2017-08-03T12:40:31.000Z,37.40
2017-08-03T12:42:58.588Z,38.60
2017-08-03T12:45:26.152Z,39.20
2017-08-03T12:47:53.841Z,39.60
2017-08-03T12:50:21.517Z,39.90
2017-08-03T12:52:49.124Z,39.80
2017-08-03T12:55:16.731Z,39.00
2017-08-03T12:57:44.288Z,38.80
2017-08-03T13:00:12.091Z,38.70
2017-08-03T13:02:39.690Z,38.60
2017-08-03T13:05:07.233Z,38.60
2017-08-03T13:07:34.797Z,39.10
2017-08-03T13:10:03.383Z,39.40
2017-08-03T13:12:39.056Z,39.00
2017-08-03T13:15:08.378Z,38.60
2017-08-03T13:17:36.002Z,39.10
2017-08-03T13:20:03.576Z,38.20
2017-08-03T13:22:31.381Z,37.20
2017-08-03T13:24:58.929Z,36.80
2017-08-03T13:27:26.467Z,36.70
2017-08-03T13:29:54.788Z,36.50
2017-08-03T13:32:22.325Z,36.50
2017-08-03T13:34:49.875Z,37.60
2017-08-03T13:37:17.427Z,39.10
2017-08-03T13:39:45.731Z,40.40
2017-08-03T13:42:13.261Z,40.40
2017-08-03T13:44:40.840Z,39.40
2017-08-03T13:47:09.139Z,37.40
2017-08-03T13:49:36.697Z,37.30
2017-08-03T13:52:04.272Z,36.80
2017-08-03T13:54:31.813Z,36.90
2017-08-03T13:56:59.344Z,36.70
2017-08-03T13:59:26.877Z,36.70
2017-08-03T14:01:54.414Z,37.10
2017-08-03T14:04:21.949Z,37.20
2017-08-03T14:06:49.512Z,36.80
2017-08-03T14:09:17.045Z,36.70
2017-08-03T14:11:44.592Z,36.50
2017-08-03T14:14:12.172Z,36.30
2017-08-03T14:16:39.714Z,36.10
2017-08-03T14:19:07.255Z,36.00
2017-08-03T14:21:36.548Z,35.50
2017-08-03T14:24:04.840Z,35.80
2017-08-03T14:26:33.155Z,36.80
2017-08-03T14:29:00.702Z,36.80
2017-08-03T14:31:28.233Z,37.40
2017-08-03T14:33:55.749Z,38.10
2017-08-03T14:36:23.309Z,38.30
2017-08-03T14:38:50.844Z,38.20
2017-08-03T14:41:19.151Z,38.70
2017-08-03T14:43:46.717Z,38.70
2017-08-03T14:46:14.258Z,38.60
2017-08-03T14:48:41.794Z,37.50
2017-08-03T14:51:09.355Z,36.80
2017-08-03T14:53:36.923Z,36.10
2017-08-03T14:56:04.451Z,36.30
2017-08-03T14:58:32.024Z,36.00
2017-08-03T15:00:59.573Z,35.10
2017-08-03T15:03:27.159Z,34.60
2017-08-03T15:05:54.720Z,34.20
2017-08-03T15:08:22.255Z,33.80
2017-08-03T15:10:49.789Z,33.50
2017-08-03T15:13:18.546Z,33.00
2017-08-03T15:15:46.102Z,33.00
2017-08-03T15:18:13.654Z,32.60
2017-08-03T15:20:41.216Z,31.80
2017-08-03T15:23:08.743Z,31.40
2017-08-03T15:25:36.347Z,31.30
2017-08-03T15:28:03.890Z,31.50
2017-08-03T15:30:31.429Z,31.70
2017-08-03T15:32:59.724Z,32.00
2017-08-03T15:35:28.038Z,32.20
2017-08-03T15:37:55.608Z,32.20
2017-08-03T15:40:23.155Z,32.50
2017-08-03T15:42:50.716Z,33.00
2017-08-03T15:45:18.241Z,33.10
2017-08-03T15:47:45.782Z,33.00
2017-08-03T15:50:13.357Z,32.80
2017-08-03T15:52:40.923Z,32.50
2017-08-03T15:55:08.471Z,32.30
2017-08-03T15:57:36.068Z,31.70
2017-08-03T16:00:03.585Z,31.10
2017-08-03T16:02:31.136Z,30.70
2017-08-03T16:04:58.703Z,30.30
2017-08-03T16:07:26.243Z,30.00
2017-08-03T16:09:53.790Z,29.70
2017-08-03T16:12:22.125Z,29.40
2017-08-03T16:14:49.670Z,29.40
2017-08-03T16:17:17.197Z,29.40
2017-08-03T16:19:44.757Z,29.70
2017-08-03T16:22:12.281Z,30.20
2017-08-03T16:24:39.801Z,31.60
2017-08-03T16:27:08.113Z,33.30
2017-08-03T16:29:35.664Z,33.30
2017-08-03T16:32:03.189Z,33.50
2017-08-03T16:34:30.733Z,33.50
2017-08-03T16:36:58.285Z,33.00
2017-08-03T16:39:25.816Z,32.60
2017-08-03T16:41:53.381Z,32.20
2017-08-03T16:44:20.899Z,31.70
2017-08-03T16:46:48.438Z,31.20
2017-08-03T16:49:16.012Z,30.80
2017-08-03T16:51:44.605Z,30.40
2017-08-03T16:54:12.121Z,30.20
2017-08-03T16:56:40.448Z,29.40
2017-08-03T16:59:07.989Z,29.40
2017-08-03T17:01:35.524Z,29.10
2017-08-03T17:04:03.112Z,28.90
2017-08-03T17:06:30.713Z,28.70
2017-08-03T17:08:58.253Z,28.70
2017-08-03T17:11:30.013Z,28.50
2017-08-03T17:13:57.545Z,28.30
2017-08-03T17:16:25.097Z,28.20
2017-08-03T17:18:53.443Z,27.90
2017-08-03T17:21:20.978Z,27.90
2017-08-03T17:23:48.521Z,27.90
2017-08-03T17:26:16.834Z,27.70
2017-08-03T17:28:44.382Z,27.70
2017-08-03T17:31:11.912Z,27.70
2017-08-03T17:33:40.231Z,27.60
2017-08-03T17:36:07.775Z,27.60
2017-08-03T17:38:36.071Z,27.50
2017-08-03T17:41:03.768Z,27.50
2017-08-03T17:43:31.448Z,27.40
2017-08-03T17:45:59.159Z,27.40
2017-08-03T17:48:26.834Z,27.30
2017-08-03T17:50:54.387Z,27.20
2017-08-03T17:53:22.919Z,27.30
2017-08-03T17:55:50.556Z,27.20
2017-08-03T17:58:18.119Z,27.10
2017-08-03T18:00:45.864Z,27.00
2017-08-03T18:03:14.269Z,26.70
2017-08-03T18:05:41.833Z,26.70
2017-08-03T18:08:09.372Z,26.50
2017-08-03T18:10:36.930Z,26.40
2017-08-03T18:13:04.762Z,26.30
2017-08-03T18:15:32.400Z,26.10
2017-08-03T18:17:59.995Z,26.00
2017-08-03T18:20:27.625Z,25.80
2017-08-03T18:22:55.264Z,25.70
2017-08-03T18:25:22.869Z,25.50
2017-08-03T18:27:50.417Z,25.40
2017-08-03T18:30:18.938Z,25.30
2017-08-03T18:32:46.738Z,25.20
2017-08-03T18:35:14.365Z,25.10
2017-08-03T18:37:41.899Z,25.00
2017-08-03T18:40:09.536Z,24.90
2017-08-03T18:42:37.063Z,24.80
2017-08-03T18:45:04.691Z,24.70
2017-08-03T18:47:32.260Z,24.60
2017-08-03T18:50:00.685Z,24.40
2017-08-03T18:52:28.235Z,24.40
2017-08-03T18:54:56.118Z,24.30
2017-08-03T18:57:23.925Z,24.20
2017-08-03T18:59:51.911Z,24.00
2017-08-03T19:02:19.494Z,24.00
2017-08-03T19:04:47.501Z,23.90
2017-08-03T19:07:15.323Z,23.80
2017-08-03T19:09:49.484Z,23.70
2017-08-03T19:12:17.438Z,23.70
2017-08-03T19:14:45.256Z,23.60
2017-08-03T19:17:12.873Z,23.60
2017-08-03T19:19:40.788Z,23.60
2017-08-03T19:22:08.314Z,23.50
2017-08-03T19:24:36.176Z,23.40
2017-08-03T19:27:05.621Z,23.40
2017-08-03T19:29:33.370Z,23.30
2017-08-03T19:32:00.974Z,23.20
2017-08-03T19:34:28.587Z,23.20
2017-08-03T19:36:56.337Z,23.10
2017-08-03T19:39:25.427Z,23.10
2017-08-03T19:41:53.322Z,23.00
2017-08-03T19:44:20.983Z,23.00
2017-08-03T19:46:49.571Z,23.00
2017-08-03T19:49:17.919Z,23.00
2017-08-03T19:51:45.821Z,23.00
2017-08-03T19:54:15.345Z,22.90
2017-08-03T19:56:43.699Z,22.90
2017-08-03T19:59:11.735Z,22.80
2017-08-03T20:01:41.068Z,22.90
2017-08-03T20:04:09.240Z,22.80
2017-08-03T20:06:46.971Z,22.80
2017-08-03T20:09:24.230Z,22.60
2017-08-03T20:11:52.719Z,22.60
2017-08-03T20:14:20.596Z,22.60
2017-08-03T20:16:48.546Z,22.50
2017-08-03T20:19:16.256Z,22.40
2017-08-03T20:21:44.019Z,22.30
2017-08-03T20:24:12.496Z,22.30
2017-08-03T20:26:40.334Z,22.30
2017-08-03T20:29:07.977Z,22.30
2017-08-03T20:31:35.684Z,22.20
2017-08-03T20:34:03.478Z,22.20
2017-08-03T20:36:31.153Z,22.20
2017-08-03T20:38:59.042Z,22.20
2017-08-03T20:41:27.396Z,22.20
2017-08-03T20:43:55.367Z,22.10
2017-08-03T20:46:23.911Z,22.10
2017-08-03T20:48:52.420Z,22.10
2017-08-03T20:51:20.100Z,22.10
2017-08-03T20:53:48.425Z,22.00
2017-08-03T20:56:15.999Z,22.00
2017-08-03T20:58:43.532Z,22.00
2017-08-03T21:01:12.009Z,21.80
2017-08-03T21:03:40.521Z,21.70
2017-08-03T21:06:08.248Z,21.70
2017-08-03T21:08:36.643Z,21.60
2017-08-03T21:11:04.547Z,21.60
2017-08-03T21:13:32.373Z,21.60
2017-08-03T21:16:01.175Z,21.50
2017-08-03T21:18:30.129Z,21.50
2017-08-03T21:20:58.108Z,21.50
2017-08-03T21:23:26.038Z,21.60
2017-08-03T21:25:54.438Z,21.50
2017-08-03T21:28:22.179Z,21.50
2017-08-03T21:30:51.515Z,21.40
2017-08-03T21:33:19.085Z,21.40
2017-08-03T21:35:46.627Z,21.40
2017-08-03T21:38:14.942Z,21.40
2017-08-03T21:40:42.499Z,21.30
2017-08-03T21:43:10.040Z,21.30
2017-08-03T21:45:38.321Z,21.20
2017-08-03T21:48:06.646Z,21.10
2017-08-03T21:50:34.182Z,21.10
2017-08-03T21:53:01.707Z,21.10
2017-08-03T21:55:29.285Z,21.00
2017-08-03T21:57:57.632Z,20.90
2017-08-03T22:00:37.043Z,20.90
2017-08-03T22:03:04.669Z,21.00
2017-08-03T22:05:33.038Z,20.90
2017-08-03T22:08:00.660Z,20.90
2017-08-03T22:10:28.241Z,20.90
2017-08-03T22:12:55.756Z,20.90
2017-08-03T22:15:25.061Z,20.80
2017-08-03T22:17:52.607Z,20.80
2017-08-03T22:20:20.909Z,20.80
2017-08-03T22:22:48.466Z,20.80
2017-08-03T22:25:16.787Z,20.70
2017-08-03T22:27:44.318Z,20.70
2017-08-03T22:30:11.972Z,20.70
2017-08-03T22:32:39.509Z,20.70
2017-08-03T22:35:07.822Z,20.70
2017-08-03T22:37:35.370Z,20.80
2017-08-03T22:40:02.940Z,20.80
2017-08-03T22:42:31.268Z,20.90
2017-08-03T22:44:58.824Z,20.90
2017-08-03T22:47:26.364Z,20.90
2017-08-03T22:49:54.659Z,20.90
2017-08-03T22:52:22.266Z,20.90
2017-08-03T22:54:49.812Z,21.00
2017-08-03T22:57:17.347Z,20.90
2017-08-03T22:59:44.940Z,20.80
2017-08-03T23:02:12.477Z,20.80
2017-08-03T23:04:40.014Z,20.80
2017-08-03T23:07:07.580Z,20.80
2017-08-03T23:09:35.911Z,20.70
2017-08-03T23:12:03.746Z,20.70
2017-08-03T23:14:32.082Z,20.80
2017-08-03T23:16:59.638Z,20.70
2017-08-03T23:19:27.180Z,20.80
2017-08-03T23:21:54.823Z,20.80
2017-08-03T23:24:22.430Z,20.80
2017-08-03T23:26:49.997Z,20.80
2017-08-03T23:29:17.575Z,20.80
2017-08-03T23:31:45.140Z,20.80
2017-08-03T23:34:12.680Z,20.90
2017-08-03T23:36:41.253Z,20.90
2017-08-03T23:39:08.808Z,20.90
2017-08-03T23:41:36.337Z,20.90
2017-08-03T23:44:03.921Z,20.90
2017-08-03T23:46:31.467Z,20.90
2017-08-03T23:48:59.017Z,20.90
2017-08-03T23:51:26.583Z,20.90
2017-08-03T23:53:54.125Z,20.90
2017-08-03T23:56:21.685Z,21.00
2017-08-03T23:58:49.248Z,21.00
